ADDS METAR Data INFO
IDs: Format: Raw Decoded Include TAF

Data at: 1746 UTC 21 Oct 2017

KIDP 211735Z AUTO 19018KT 10SM BKN025 OVC031 24/18 A2986 RMK AO2 T02420184
KIDP 211715Z AUTO 17020G27KT 10SM BKN022 OVC050 24/19 A2985 RMK AO2 T02350186
KIDP 211655Z AUTO 17021G27KT 10SM OVC020 23/18 A2986 RMK AO2 T02260183
KIDP 211635Z AUTO 18020G23KT 10SM OVC018 22/18 A2987 RMK AO2 T02240182
KIDP 211615Z AUTO 18023G28KT 10SM OVC018 22/18 A2987 RMK AO2
KIDP 211555Z AUTO 17023G28KT 10SM OVC016 22/18 A2987 RMK AO2 T02160180
KIDP 211535Z AUTO 18024G28KT 10SM OVC016 21/18 A2987 RMK AO2
KIDP 211515Z AUTO 17024G29KT 10SM OVC016 21/18 A2986 RMK AO2 LTG DSNT W T02090176
KIDP 211455Z AUTO 17019G28KT 10SM OVC016 21/18 A2986 RMK AO2 T02080175
KIDP 211435Z AUTO 17019G25KT 10SM OVC016 20/17 A2987 RMK AO2 T02040173
KIDP 211415Z AUTO 17018G26KT 10SM OVC016 20/17 A2987 RMK AO2 T02020173
KIDP 211355Z AUTO 16017G25KT 10SM OVC016 20/17 A2986 RMK AO2 T01970170
KIDP 211335Z AUTO 17018G23KT 10SM OVC016 19/17 A2987 RMK AO2 T01940166
KIDP 211315Z AUTO 15018G25KT 10SM BKN016 BKN022 OVC050 19/16 A2986 RMK AO2 T01900163
KIDP 211255Z AUTO 16019G24KT 10SM BKN016 OVC050 19/16 A2986 RMK AO2 T01870161
KIDP 211235Z AUTO 16017G23KT 10SM OVC016 19/16 A2986 RMK AO2 T01870161
KIDP 211215Z AUTO 17016G25KT 10SM OVC016 19/16 A2987 RMK AO2 T01870160
KIDP 211155Z AUTO 16018G24KT 10SM OVC016 19/16 A2987 RMK AO2 T01860158 10193 20182
KIDP 211135Z AUTO 17018G23KT 10SM OVC016 19/16 A2987 RMK AO2 T01870157
KIDP 211115Z AUTO 17016G24KT 10SM OVC016 19/16 A2988 RMK AO2 T01880155
KIDP 211055Z AUTO 18020G25KT 10SM OVC018 19/15 A2987 RMK AO2 T01890155
KIDP 211035Z AUTO 17019G23KT 10SM OVC018 19/15 A2987 RMK AO2 T01900153
KIDP 211015Z AUTO 17017G24KT 10SM OVC020 19/15 A2985 RMK AO2 LTG DSNT N T01880150
KIDP 210955Z AUTO 17018G27KT 10SM OVC022 19/15 A2985 RMK AO2 T01890148
KIDP 210935Z AUTO 17019G31KT 10SM OVC022 19/15 A2985 RMK AO2
KIDP 210915Z AUTO 17020G26KT 10SM OVC022 19/15 A2985 RMK AO2
KIDP 210855Z AUTO 17021G28KT 10SM OVC026 19/15 A2985 RMK AO2
KIDP 210835Z AUTO 17020KT 10SM OVC026 19/15 A2985 RMK AO2 T01900148
KIDP 210815Z AUTO 17017G24KT 10SM OVC026 19/15 A2985 RMK AO2 T01880148
KIDP 210755Z AUTO 16017G26KT 10SM SCT026 BKN031 19/15 A2985 RMK AO2 T01860150
KIDP 210735Z AUTO 16017G24KT 10SM BKN029 18/15 A2986 RMK AO2 T01850150
KIDP 210715Z AUTO 17016KT 10SM BKN029 19/15 A2987 RMK AO2 T01870152
KIDP 210655Z AUTO 16015G23KT 10SM CLR 19/15 A2988 RMK AO2 T01860152
KIDP 210635Z AUTO 17016G23KT 10SM CLR 19/15 A2988 RMK AO2 T01870153
KIDP 210615Z AUTO 16014KT 10SM CLR 19/15 A2988 RMK AO2 T01870155
KIDP 210555Z AUTO 16014G22KT 10SM CLR 19/16 A2988 RMK AO2 T01870156 10218 20186
KIDP 210535Z AUTO 17015KT 10SM CLR 19/16 A2989 RMK AO2 T01890156
KIDP 210515Z AUTO 17014G19KT 10SM CLR 19/16 A2989 RMK AO2 T01880156
KIDP 210455Z AUTO 16011KT 10SM CLR 19/16 A2989 RMK AO2 T01890156
KIDP 210435Z AUTO 16013G19KT 10SM CLR 19/15 A2988 RMK AO2 T01890155
KIDP 210415Z AUTO 16014KT 10SM CLR 19/15 A2989 RMK AO2 T01900154
KIDP 210355Z AUTO 16014G20KT 10SM CLR 19/15 A2988 RMK AO2 T01920152
KIDP 210335Z AUTO 16013G19KT 10SM SCT046 19/15 A2989 RMK AO2 T01940151
KIDP 210315Z AUTO 16017KT 10SM BKN046 20/15 A2989 RMK AO2 T01980150
KIDP 210255Z AUTO 16014G19KT 10SM SCT046 20/15 A2989 RMK AO2 T01970147
KIDP 210235Z AUTO 16013KT 10SM CLR 20/15 A2989 RMK AO2 T01980146
KIDP 210215Z AUTO 16018G24KT 10SM CLR 20/15 A2988 RMK AO2 T02030146
KIDP 210155Z AUTO 16015G20KT 10SM CLR 21/15 A2987 RMK AO2 T02070147
KIDP 210135Z AUTO 16014G24KT 10SM CLR 21/15 A2987 RMK AO2 T02090148
KIDP 210115Z AUTO 15013G19KT 10SM CLR 21/15 A2987 RMK AO2 T02090151
KIDP 210055Z AUTO 15013KT 10SM CLR 21/15 A2987 RMK AO2 T02120152
KIDP 210035Z AUTO 14015KT 10SM BKN060 21/15 A2988 RMK AO2 T02130153
KIDP 210015Z AUTO 15014G22KT 10SM BKN060 22/16 A2988 RMK AO2 T02180156
KIDP 202355Z AUTO 15015G19KT 10SM SCT060 22/16 A2987 RMK AO2 T02180158 10252 20217 402520121
KIDP 202335Z AUTO 16014G19KT 10SM CLR 22/16 A2988 RMK AO2 T02190159
KIDP 202315Z AUTO 16017G21KT 10SM CLR 22/16 A2988 RMK AO2 T02230160
KIDP 202255Z AUTO 16016KT 10SM SCT036 23/16 A2988 RMK AO2 T02290160
KIDP 202235Z AUTO 17018KT 10SM SCT036 23/16 A2988 RMK AO2 T02320160
KIDP 202215Z AUTO 16014G23KT 10SM CLR 23/16 A2989 RMK AO2 T02330159
KIDP 202155Z AUTO 17017G27KT 10SM CLR 23/16 A2990 RMK AO2 T02310159
KIDP 202135Z AUTO 16020G27KT 10SM CLR 23/16 A2990 RMK AO2 T02340158
KIDP 202115Z AUTO 16021G27KT 10SM CLR 23/16 A2990 RMK AO2 T02300156
KIDP 202055Z AUTO 16017KT 10SM CLR 24/15 A2991 RMK AO2 T02390155
KIDP 202035Z AUTO 17018G24KT 10SM CLR 24/15 A2992 RMK AO2 T02380150
KIDP 202015Z AUTO 16017KT 10SM CLR 23/15 A2993 RMK AO2 T02280150
KIDP 201955Z AUTO 17019G23KT 10SM CLR 22/15 A2994 RMK AO2 T02230147
KIDP 201935Z AUTO 18020G29KT 10SM CLR 23/15 A2995 RMK AO2 T02340146
KIDP 201915Z AUTO 16023G29KT 10SM SCT035 23/15 A2995 RMK AO2 T02300149
KIDP 201855Z AUTO 16022G29KT 10SM CLR 24/15 A2997 RMK AO2 T02440153
KIDP 201835Z AUTO 18019KT 10SM CLR 24/14 A2998 RMK AO2
KIDP 201815Z AUTO 17022G25KT 10SM CLR 24/15 A3000 RMK AO2 T02430146
KIDP 201755Z AUTO 17020KT 10SM CLR 24/14 A3000 RMK AO2 T02350145 10239 20121
KIDP 201735Z AUTO 17018KT 10SM CLR 24/14 A3002 RMK AO2 T02350145
KIDP 201715Z AUTO 16018KT 10SM CLR 23/14 A3003 RMK AO2 T02300142
KIDP 201655Z AUTO 17017G20KT 10SM CLR 22/14 A3004 RMK AO2 T02180137
KIDP 201635Z AUTO 16017G21KT 10SM CLR 22/14 A3005 RMK AO2
KIDP 201615Z AUTO 16020G24KT 10SM CLR 21/14 A3006 RMK AO2 T02110139
KIDP 201555Z AUTO 16016G20KT 10SM CLR 20/14 A3007 RMK AO2 T02030142
KIDP 201535Z AUTO 17020KT 10SM CLR 20/14 A3008 RMK AO2 T01960141
KIDP 201515Z AUTO 17014KT 10SM CLR 19/14 A3008 RMK AO2 T01890144
KIDP 201455Z AUTO 17013KT 10SM CLR 17/14 A3009 RMK AO2 T01740137
KIDP 201435Z AUTO 15011KT 10SM CLR 16/13 A3008 RMK AO2 T01640134
KIDP 201415Z AUTO 16009KT 10SM CLR 15/13 A3009 RMK AO2 T01550127
KIDP 201355Z AUTO 17008KT 10SM CLR 14/12 A3009 RMK AO2 T01420121
KIDP 201335Z AUTO 16009KT 10SM CLR 14/12 A3009 RMK AO2 T01360117
KIDP 201315Z AUTO 16007KT 10SM CLR 13/11 A3009 RMK AO2 T01260111
KIDP 201255Z AUTO 16007KT 10SM CLR 12/11 A3009 RMK AO2 T01220108
KIDP 201235Z AUTO 15008KT 10SM CLR 12/11 A3009 RMK AO2 T01250109
KIDP 201215Z AUTO 16009KT 10SM CLR 12/11 A3010 RMK AO2 T01230108
KIDP 201155Z AUTO 16009KT 10SM CLR 12/11 A3010 RMK AO2 T01250109 10137 20122
KIDP 201135Z AUTO 16009KT 10SM CLR 12/11 A3010 RMK AO2 T01250109
KIDP 201115Z AUTO 16008KT 10SM CLR 13/11 A3010 RMK AO2 T01260110
KIDP 201055Z AUTO 16009KT 10SM CLR 13/11 A3010 RMK AO2 T01290112
KIDP 201035Z AUTO 15009KT 10SM CLR 13/11 A3010 RMK AO2
KIDP 201015Z AUTO 15008KT 10SM CLR 12/11 A3010 RMK AO2
KIDP 200955Z AUTO 14007KT 10SM CLR 12/11 A3009 RMK AO2 T01250107
KIDP 200935Z AUTO 16006KT 10SM CLR 13/11 A3010 RMK AO2
KIDP 200915Z AUTO 16005KT 10SM CLR 13/11 A3010 RMK AO2
KIDP 200855Z AUTO 16006KT 10SM CLR 12/11 A3010 RMK AO2
KIDP 200835Z AUTO 17007KT 10SM CLR 13/11 A3010 RMK AO2 T01330111
KIDP 200815Z AUTO 17009KT 10SM CLR 14/11 A3010 RMK AO2
KIDP 200755Z AUTO 17007KT 10SM CLR 14/11 A3010 RMK AO2 T01360109
KIDP 200735Z AUTO 17007KT 10SM CLR 13/11 A3010 RMK AO2 T01300107
KIDP 200715Z AUTO 17006KT 10SM CLR 13/11 A3011 RMK AO2 T01310112
KIDP 200655Z AUTO 14005KT 10SM CLR 12/11 A3011 RMK AO2 T01240111
KIDP 200635Z AUTO 15005KT 10SM CLR 13/11 A3011 RMK AO2 T01300113
KIDP 200615Z AUTO 17007KT 10SM CLR 13/11 A3011 RMK AO2 T01260109
KIDP 200555Z AUTO 17006KT 10SM CLR 13/11 A3011 RMK AO2 T01300111 10188 20129